Terminal Aerodrome Forecast
Issued by NWS

Home | Current Version | Previous Version | Text Only | Print | Product List | Glossary On
Versions: 1 2 3 4 5 6 7 8 9 10 11 12 13 14 15 16 17
000
FTUS43 KICT 031537 AAA
TAFCNU
TAF AMD
KCNU 031537Z 0316/0412 18012KT P6SM FEW040 SCT060 SCT250
     FM031830 18015G25KT P6SM SCT035
     FM040100 15010KT P6SM SCT020 SCT050=

USA.gov is the U.S. government's official web portal to all federal, state and local government web resources and services.